Time;durP1;ratioP1;P1;durP2;ratioP2;P2;SDS_P1;SDS_P2;PMS_P1;PMS_P2;Temp;Humidity;BMP_temperature;BMP_pressure;BME280_temperature;BME280_humidity;BME280_pressure;Samples;Min_cycle;Max_cycle;Signal;HPM_P1;HPM_P2
2022/12/10 00:01:22;;;;;;;52.10;29.70;;;;;;;-0.17;97.76;94256.28;4974836;28;20209;-81
2022/12/10 00:03:48;;;;;;;48.23;29.10;;;;;;;-0.14;97.45;94265.44;4977359;28;20239;-81
2022/12/10 00:06:20;;;;;;;52.40;30.33;;;;;;;-0.06;98.07;94261.38;4982215;28;20188;-81
2022/12/10 00:08:45;;;;;;;55.73;30.27;;;;;;;-0.06;97.43;94256.28;4965627;28;20192;-82
2022/12/10 00:11:12;;;;;;;48.70;29.00;;;;;;;-0.03;97.28;94268.00;4981487;28;20220;-82
2022/12/10 00:13:39;;;;;;;48.60;28.50;;;;;;;0.02;97.04;94270.22;4979462;28;20258;-81
2022/12/10 00:16:06;;;;;;;50.97;28.70;;;;;;;-0.03;97.17;94268.00;4958754;28;20192;-82
2022/12/10 00:18:32;;;;;;;49.27;29.57;;;;;;;-0.08;96.70;94270.09;4979100;28;20224;-79
2022/12/10 00:20:57;;;;;;;49.50;29.23;;;;;;;-0.11;97.19;94275.41;4966405;28;20205;-82
2022/12/10 00:23:23;;;;;;;48.90;30.27;;;;;;;-0.10;97.61;94279.59;4981373;28;20203;-80
2022/12/10 00:25:48;;;;;;;49.80;30.47;;;;;;;-0.09;97.26;94268.44;4970642;28;20216;-80
2022/12/10 00:28:14;;;;;;;54.67;32.17;;;;;;;-0.12;97.60;94269.50;4960416;28;20233;-79
2022/12/10 00:30:39;;;;;;;47.27;28.63;;;;;;;-0.22;98.67;94276.22;4964461;28;20235;-81
2022/12/10 00:33:04;;;;;;;55.30;29.73;;;;;;;-0.17;98.69;94270.78;4960149;28;20180;-82
2022/12/10 00:35:29;;;;;;;49.80;30.10;;;;;;;-0.19;98.72;94270.88;4952837;28;20269;-81
2022/12/10 00:37:55;;;;;;;50.40;31.00;;;;;;;-0.16;98.49;94267.31;4964672;28;20985;-83
2022/12/10 00:40:20;;;;;;;45.23;28.67;;;;;;;-0.24;98.03;94280.63;4964861;28;20197;-80
2022/12/10 00:42:46;;;;;;;47.37;30.10;;;;;;;-0.22;98.12;94273.66;4970665;28;20200;-79
2022/12/10 00:45:11;;;;;;;44.53;28.63;;;;;;;-0.08;97.23;94270.91;4975517;28;20545;-80
2022/12/10 00:47:36;;;;;;;50.10;28.93;;;;;;;0.04;97.06;94274.28;4963950;28;20215;-80
2022/12/10 00:50:02;;;;;;;52.97;30.23;;;;;;;0.10;95.99;94276.38;4955003;28;20188;-81
2022/12/10 00:52:27;;;;;;;46.23;30.07;;;;;;;0.09;95.96;94274.75;4972974;28;20219;-80
2022/12/10 00:54:52;;;;;;;47.30;28.57;;;;;;;-0.28;98.62;94286.84;4968178;28;20228;-80
2022/12/10 00:57:18;;;;;;;51.17;30.80;;;;;;;-0.01;98.17;94282.25;4964393;28;20195;-80
2022/12/10 00:59:43;;;;;;;50.53;30.90;;;;;;;0.09;97.38;94284.13;4970972;28;20193;-80
2022/12/10 01:02:08;;;;;;;50.13;30.40;;;;;;;-0.09;97.98;94283.75;4977146;28;20200;-81
2022/12/10 01:04:33;;;;;;;48.87;28.33;;;;;;;-0.07;97.96;94287.03;4964963;28;20215;-81
2022/12/10 01:06:59;;;;;;;51.77;29.07;;;;;;;-0.10;97.82;94293.16;4974852;28;20597;-81
2022/12/10 01:09:27;;;;;;;51.07;30.47;;;;;;;-0.08;97.38;94298.16;4955982;28;20200;-81
2022/12/10 01:11:54;;;;;;;48.50;30.37;;;;;;;-0.04;97.81;94295.25;4977329;28;20193;-81
2022/12/10 01:14:23;;;;;;;52.50;30.03;;;;;;;-0.05;97.86;94297.94;4979460;28;20216;-80
2022/12/10 01:16:49;;;;;;;50.03;30.10;;;;;;;0.11;96.55;94293.31;4972924;28;20211;-80
2022/12/10 01:19:15;;;;;;;54.33;31.77;;;;;;;-0.02;96.99;94287.47;4977639;28;20212;-81
2022/12/10 01:21:40;;;;;;;51.97;30.17;;;;;;;-0.08;97.26;94295.63;4963748;28;20192;-81
2022/12/10 01:24:06;;;;;;;50.97;31.10;;;;;;;0.04;96.73;94298.97;4968816;28;20213;-81
2022/12/10 01:26:33;;;;;;;53.27;31.87;;;;;;;0.05;97.22;94301.41;4971343;28;20215;-81
2022/12/10 01:28:59;;;;;;;53.00;30.83;;;;;;;-0.05;97.50;94316.59;4976584;28;20198;-81
2022/12/10 01:31:30;;;;;;;56.27;31.60;;;;;;;0.06;96.79;94307.34;4980432;28;20184;-82
2022/12/10 01:33:57;;;;;;;51.53;30.07;;;;;;;0.14;96.64;94310.13;4977924;28;20243;-79
2022/12/10 01:36:26;;;;;;;55.13;30.83;;;;;;;0.10;96.97;94312.09;4965475;28;20195;-82
2022/12/10 01:38:51;;;;;;;53.27;29.17;;;;;;;0.11;96.30;94318.84;4961103;28;20196;-80
2022/12/10 01:41:22;;;;;;;53.57;30.87;;;;;;;0.13;96.48;94322.06;4949079;28;20193;-81
2022/12/10 01:43:59;;;;;;;48.47;29.23;;;;;;;0.20;95.95;94327.53;4969195;28;20203;-79
2022/12/10 01:46:28;;;;;;;47.27;28.57;;;;;;;0.07;95.75;94321.72;4962126;28;20223;-81
2022/12/10 01:48:53;;;;;;;50.57;29.03;;;;;;;-0.05;95.83;94318.34;4962538;28;20223;-81
2022/12/10 01:51:19;;;;;;;48.27;29.00;;;;;;;-0.10;95.71;94321.22;4977077;28;20208;-81
2022/12/10 01:53:45;;;;;;;48.03;28.17;;;;;;;-0.02;96.13;94318.09;4973805;28;20223;-81
2022/12/10 01:56:11;;;;;;;51.00;30.33;;;;;;;0.05;95.25;94314.19;4977179;28;20192;-80
2022/12/10 01:58:37;;;;;;;44.93;27.90;;;;;;;-0.01;95.75;94314.63;4972466;28;20257;-80
2022/12/10 02:01:16;;;;;;;47.70;28.53;;;;;;;0.03;95.60;94323.69;4967882;28;20215;-81
2022/12/10 02:03:51;;;;;;;50.27;28.97;;;;;;;0.05;95.69;94323.56;4960574;28;20301;-80
2022/12/10 02:06:22;;;;;;;49.90;29.30;;;;;;;-0.07;95.42;94322.75;4976319;28;20794;-81
2022/12/10 02:09:00;;;;;;;52.33;28.60;;;;;;;0.03;95.08;94320.34;4969209;28;20192;-80
2022/12/10 02:11:31;;;;;;;49.03;29.70;;;;;;;0.11;94.97;94328.22;4972052;28;20191;-80
2022/12/10 02:14:05;;;;;;;47.60;28.57;;;;;;;0.09;94.91;94324.97;4958270;28;20212;-80
2022/12/10 02:16:38;;;;;;;46.90;29.17;;;;;;;0.13;95.39;94327.19;4948307;28;20543;-80
2022/12/10 02:19:16;;;;;;;48.27;28.93;;;;;;;0.19;94.77;94324.19;4958478;28;20199;-80
2022/12/10 02:21:44;;;;;;;49.80;29.13;;;;;;;0.13;94.23;94319.53;4972417;28;20239;-82
2022/12/10 02:24:14;;;;;;;52.60;29.20;;;;;;;0.06;93.92;94322.66;4953700;28;20205;-80
2022/12/10 02:27:10;;;;;;;46.00;27.87;;;;;;;0.09;94.71;94312.19;4967953;28;20201;-82
2022/12/10 02:29:36;;;;;;;49.87;30.30;;;;;;;-0.01;95.22;94309.53;4961694;28;20184;-81
2022/12/10 02:32:05;;;;;;;46.40;28.70;;;;;;;-0.02;95.17;94311.25;4960057;28;20671;-81
2022/12/10 02:34:33;;;;;;;50.83;28.40;;;;;;;-0.05;95.31;94298.75;4957875;28;20352;-80
2022/12/10 02:37:03;;;;;;;45.03;29.33;;;;;;;-0.06;95.21;94284.34;4971483;28;20761;-81
2022/12/10 02:39:33;;;;;;;48.53;28.30;;;;;;;-0.02;95.14;94284.94;4976713;28;20266;-81
2022/12/10 02:42:00;;;;;;;47.70;27.97;;;;;;;-0.03;95.57;94268.81;4960704;28;20195;-80
2022/12/10 02:44:27;;;;;;;48.80;27.70;;;;;;;-0.20;96.38;94271.81;4976817;28;20211;-80
2022/12/10 02:46:54;;;;;;;40.87;26.83;;;;;;;-0.03;95.79;94270.53;4960056;28;20204;-80
2022/12/10 02:49:20;;;;;;;44.63;28.40;;;;;;;-0.02;95.58;94265.31;4962531;28;20195;-80
2022/12/10 02:51:46;;;;;;;42.63;28.30;;;;;;;-0.14;95.70;94266.25;4953144;28;20290;-80
2022/12/10 02:54:41;;;;;;;41.87;26.50;;;;;;;-0.02;95.93;94274.72;4952495;28;20227;-80
2022/12/10 02:57:41;;;;;;;48.07;28.40;;;;;;;0.08;94.77;94285.06;4961243;28;20192;-80
2022/12/10 03:00:16;;;;;;;48.30;28.63;;;;;;;0.09;94.79;94282.41;4943788;28;20194;-81
2022/12/10 03:03:00;;;;;;;45.57;28.23;;;;;;;0.03;95.22;94289.69;4958399;28;20206;-80
2022/12/10 03:05:54;;;;;;;45.43;28.87;;;;;;;-0.24;97.36;94292.56;4961527;28;20220;-80
2022/12/10 03:08:33;;;;;;;50.67;30.63;;;;;;;-0.31;98.05;94297.31;4968356;28;20192;-79
2022/12/10 03:11:09;;;;;;;51.50;29.93;;;;;;;-0.10;97.43;94298.25;4957913;28;20700;-80
2022/12/10 03:13:45;;;;;;;53.27;31.97;;;;;;;-0.05;96.44;94305.59;4959451;28;20202;-81
2022/12/10 03:16:11;;;;;;;52.50;30.77;;;;;;;-0.03;96.33;94301.97;4959202;28;20350;-81
2022/12/10 03:18:37;;;;;;;53.90;30.47;;;;;;;-0.08;96.34;94291.31;4970981;28;20666;-81
2022/12/10 03:21:04;;;;;;;48.80;28.90;;;;;;;0.04;96.22;94292.13;4960327;28;20199;-81
2022/12/10 03:23:32;;;;;;;50.17;30.03;;;;;;;0.07;95.09;94281.69;4972235;28;20180;-80
2022/12/10 03:25:58;;;;;;;47.53;27.63;;;;;;;0.01;94.70;94278.81;4965523;28;20324;-80
2022/12/10 03:28:25;;;;;;;46.63;29.47;;;;;;;0.02;94.95;94278.69;4959927;28;20212;-81
2022/12/10 03:30:51;;;;;;;49.17;29.73;;;;;;;-0.04;94.48;94286.78;4957427;28;20215;-81
2022/12/10 03:33:17;;;;;;;46.20;28.67;;;;;;;0.02;94.48;94286.34;4969314;28;20192;-79
2022/12/10 03:35:43;;;;;;;48.50;30.03;;;;;;;-0.05;94.30;94291.09;4962590;28;20685;-81
2022/12/10 03:38:09;;;;;;;48.57;27.63;;;;;;;-0.07;94.67;94292.13;4959216;28;20735;-79
2022/12/10 03:40:34;;;;;;;44.63;27.30;;;;;;;-0.37;96.67;94301.09;4958676;28;20193;-80
2022/12/10 03:42:59;;;;;;;49.50;30.03;;;;;;;-0.30;97.54;94299.72;4965423;28;20208;-80
2022/12/10 03:45:25;;;;;;;53.40;30.67;;;;;;;0.03;95.99;94316.03;4960624;28;20228;-80
2022/12/10 03:47:50;;;;;;;45.97;28.73;;;;;;;0.09;95.49;94312.19;4959808;28;20188;-79
2022/12/10 03:50:16;;;;;;;45.63;29.10;;;;;;;0.12;95.44;94317.91;4995732;28;20567;-81
2022/12/10 03:52:41;;;;;;;46.57;29.33;;;;;;;0.13;95.32;94316.16;4984536;28;20215;-81
2022/12/10 03:55:07;;;;;;;51.17;28.97;;;;;;;0.21;94.50;94316.41;4983553;28;20220;-79
2022/12/10 03:57:33;;;;;;;48.70;29.07;;;;;;;0.11;94.02;94321.38;4966358;28;20229;-82
2022/12/10 03:59:58;;;;;;;46.40;27.30;;;;;;;0.21;94.08;94318.97;4955907;28;20204;-82
2022/12/10 04:02:23;;;;;;;42.20;26.60;;;;;;;0.23;93.98;94315.34;4949701;28;20189;-82
2022/12/10 04:04:49;;;;;;;48.83;30.07;;;;;;;0.15;93.99;94320.22;4963593;28;20973;-80
2022/12/10 04:07:14;;;;;;;46.70;29.83;;;;;;;0.13;94.33;94316.97;4969068;28;20217;-80
2022/12/10 04:09:39;;;;;;;47.87;28.70;;;;;;;0.12;94.30;94317.91;4973352;28;20196;-80
2022/12/10 04:12:05;;;;;;;46.20;28.27;;;;;;;0.10;93.93;94322.31;4977942;28;20530;-80
2022/12/10 04:17:14;;;;;;;47.70;28.20;;;;;;;-0.01;94.73;94315.44;4970611;28;20191;-81
2022/12/10 04:19:39;;;;;;;43.63;27.97;;;;;;;0.06;94.39;94318.34;4974230;28;20184;-82
2022/12/10 04:27:52;;;;;;;45.03;27.50;;;;;;;-0.09;95.07;94324.59;4972876;28;20738;-81
2022/12/10 04:30:18;;;;;;;44.47;27.20;;;;;;;0.02;95.08;94316.97;4959361;28;20200;-82
2022/12/10 04:32:43;;;;;;;48.63;29.57;;;;;;;0.04;95.36;94330.44;4970095;28;20743;-81
2022/12/10 04:35:09;;;;;;;43.53;27.83;;;;;;;0.05;95.33;94328.69;4959774;28;20224;-81
2022/12/10 04:37:34;;;;;;;46.67;28.03;;;;;;;0.02;95.57;94326.38;4941223;28;20291;-81
2022/12/10 04:40:00;;;;;;;51.83;29.83;;;;;;;0.05;95.62;94326.94;4945246;28;20271;-81
2022/12/10 04:42:25;;;;;;;49.40;28.50;;;;;;;0.06;95.37;94328.56;4950742;28;20196;-80
2022/12/10 04:44:50;;;;;;;44.70;27.57;;;;;;;0.11;95.10;94311.19;4971142;28;20212;-81
2022/12/10 04:47:16;;;;;;;50.80;28.13;;;;;;;0.01;95.08;94309.44;4958715;28;20251;-79
2022/12/10 04:49:42;;;;;;;44.43;26.83;;;;;;;0.06;94.35;94310.69;4969065;28;20188;-81
2022/12/10 04:52:10;;;;;;;44.97;27.57;;;;;;;-0.21;96.01;94317.84;4963373;28;20203;-80
2022/12/10 04:54:38;;;;;;;45.60;28.13;;;;;;;-0.25;96.90;94324.13;4926347;29;20264;-79
2022/12/10 04:57:03;;;;;;;46.13;28.13;;;;;;;-0.39;97.34;94318.25;4956010;28;20231;-82
2022/12/10 04:59:28;;;;;;;49.73;30.20;;;;;;;-0.21;97.49;94320.41;4964698;28;20212;-81
2022/12/10 05:01:54;;;;;;;53.70;29.50;;;;;;;-0.23;97.19;94317.16;4962348;28;20195;-80
2022/12/10 05:04:19;;;;;;;51.73;30.20;;;;;;;-0.30;97.21;94314.22;4958960;28;20209;-79
2022/12/10 05:06:45;;;;;;;43.30;28.07;;;;;;;-0.23;97.25;94317.16;4963084;28;20231;-80
2022/12/10 05:09:11;;;;;;;47.97;28.53;;;;;;;-0.17;96.29;94314.97;4968147;28;20202;-79
2022/12/10 05:11:37;;;;;;;46.70;28.23;;;;;;;-0.48;97.35;94321.47;4975514;28;20199;-79
2022/12/10 05:14:03;;;;;;;54.33;30.50;;;;;;;-0.33;97.95;94317.81;4971717;28;20215;-80
2022/12/10 05:16:30;;;;;;;43.93;27.00;;;;;;;-0.31;97.71;94323.63;4965340;28;20251;-80
2022/12/10 05:18:56;;;;;;;54.07;31.27;;;;;;;-0.21;97.76;94333.97;4960215;28;20193;-80
2022/12/10 05:21:23;;;;;;;53.30;29.23;;;;;;;-0.43;98.71;94339.84;4958609;28;20207;-80
2022/12/10 05:23:50;;;;;;;54.00;30.23;;;;;;;-0.40;98.95;94336.22;4967847;28;20656;-80
2022/12/10 05:26:18;;;;;;;55.53;31.10;;;;;;;-0.47;99.20;94325.66;4969740;28;20229;-81
2022/12/10 05:28:46;;;;;;;51.77;30.87;;;;;;;-0.35;98.65;94329.88;4977056;28;20183;-81
2022/12/10 05:31:17;;;;;;;43.67;27.87;;;;;;;-0.38;98.82;94334.38;4974205;28;20203;-81
2022/12/10 05:33:42;;;;;;;47.90;28.83;;;;;;;-0.39;98.24;94336.13;4985515;28;20244;-80
2022/12/10 05:36:10;;;;;;;52.50;29.17;;;;;;;-0.50;98.63;94332.72;4973727;28;20590;-80
2022/12/10 05:38:36;;;;;;;51.73;29.13;;;;;;;-0.53;98.71;94338.88;4960003;28;20652;-81
2022/12/10 05:41:06;;;;;;;51.37;28.80;;;;;;;-0.46;98.85;94349.41;4970361;28;20271;-79
2022/12/10 05:43:31;;;;;;;49.63;28.90;;;;;;;-0.57;99.16;94347.66;4962365;28;20191;-79
2022/12/10 05:46:05;;;;;;;53.40;30.10;;;;;;;-0.60;100.00;94342.78;4953941;28;20215;-80
2022/12/10 05:48:31;;;;;;;51.90;29.87;;;;;;;-0.39;98.61;94345.50;4966808;28;20184;-80
2022/12/10 05:50:57;;;;;;;54.47;30.43;;;;;;;-0.52;98.90;94347.34;4966044;28;20283;-80
2022/12/10 05:53:23;;;;;;;55.93;30.97;;;;;;;-0.69;100.00;94359.53;4960019;28;20247;-80
2022/12/10 05:55:48;;;;;;;56.77;31.13;;;;;;;-0.58;100.00;94353.69;4957840;28;20668;-80
2022/12/10 05:58:14;;;;;;;57.03;31.53;;;;;;;-0.37;99.39;94357.22;4947057;28;20196;-80
2022/12/10 06:00:40;;;;;;;54.30;31.63;;;;;;;-0.36;99.03;94351.19;4968835;28;20307;-80
2022/12/10 06:03:05;;;;;;;58.20;32.47;;;;;;;-0.48;98.89;94353.81;4956576;28;20288;-80
2022/12/10 06:05:40;;;;;;;57.33;32.97;;;;;;;-0.42;99.82;94348.28;4952349;28;20223;-80
2022/12/10 06:08:06;;;;;;;53.00;31.77;;;;;;;-0.48;99.66;94358.94;4985530;28;20192;-81
2022/12/10 06:10:34;;;;;;;60.33;33.03;;;;;;;-0.52;99.45;94365.19;4962127;28;20189;-81
2022/12/10 06:12:59;;;;;;;55.37;32.73;;;;;;;-0.64;99.79;94365.13;4961761;28;20699;-80
2022/12/10 06:15:24;;;;;;;61.67;34.40;;;;;;;-0.70;100.00;94370.66;4961806;28;20221;-81
2022/12/10 06:17:49;;;;;;;56.90;33.27;;;;;;;-0.60;100.00;94369.09;4952619;28;20207;-80
2022/12/10 06:20:15;;;;;;;59.57;32.27;;;;;;;-0.57;99.67;94366.31;4956583;28;20196;-80
2022/12/10 06:22:40;;;;;;;57.07;33.30;;;;;;;-0.93;100.00;94363.81;4972658;28;20685;-80
2022/12/10 06:25:06;;;;;;;57.97;33.27;;;;;;;-0.97;100.00;94358.13;4963964;28;20590;-80
2022/12/10 06:27:31;;;;;;;65.40;36.00;;;;;;;-1.10;100.00;94364.97;4958514;28;20190;-81
2022/12/10 06:29:57;;;;;;;61.70;32.93;;;;;;;-0.95;100.00;94361.38;4957210;28;20192;-80
2022/12/10 06:32:22;;;;;;;58.40;33.57;;;;;;;-1.07;100.00;94382.59;4961751;28;20192;-80
2022/12/10 06:34:47;;;;;;;64.93;34.97;;;;;;;-0.89;100.00;94385.59;4950118;28;20259;-80
2022/12/10 06:37:13;;;;;;;64.50;33.83;;;;;;;-0.79;100.00;94380.69;4971853;28;20176;-80
2022/12/10 06:39:38;;;;;;;63.43;33.53;;;;;;;-0.60;100.00;94386.94;4969671;28;20589;-80
2022/12/10 06:42:05;;;;;;;62.07;33.93;;;;;;;-0.45;100.00;94394.41;4963981;28;20192;-80
2022/12/10 06:44:30;;;;;;;56.87;33.47;;;;;;;-0.52;100.00;94399.16;4974215;28;20252;-81
2022/12/10 06:46:55;;;;;;;63.30;32.70;;;;;;;-0.42;99.60;94394.19;4956834;28;20196;-82
2022/12/10 06:49:21;;;;;;;57.83;33.13;;;;;;;-0.36;98.93;94399.66;4966101;28;20224;-80
2022/12/10 06:51:47;;;;;;;57.27;33.07;;;;;;;-0.41;99.21;94403.47;4957919;28;20190;-79
2022/12/10 06:54:12;;;;;;;60.10;33.47;;;;;;;-0.39;98.48;94407.53;4957056;28;20759;-80
2022/12/10 06:56:37;;;;;;;58.63;32.37;;;;;;;-0.31;98.69;94418.00;4959438;28;20246;-81
2022/12/10 06:59:06;;;;;;;56.50;31.60;;;;;;;-0.58;98.41;94409.78;4966881;28;20191;-79
2022/12/10 07:01:32;;;;;;;59.07;33.23;;;;;;;-0.69;99.45;94410.53;4971587;28;20192;-80
2022/12/10 07:03:57;;;;;;;55.53;31.73;;;;;;;-0.69;100.00;94402.06;4972485;28;20199;-81
2022/12/10 07:06:24;;;;;;;50.47;31.17;;;;;;;-0.52;98.99;94404.25;4964627;28;20204;-79
2022/12/10 07:08:50;;;;;;;57.63;32.33;;;;;;;-0.36;98.07;94404.75;4959618;28;20200;-79
2022/12/10 07:11:19;;;;;;;55.37;32.33;;;;;;;-0.39;98.40;94407.53;4938013;28;20196;-80
2022/12/10 07:13:45;;;;;;;57.13;31.77;;;;;;;-0.35;98.37;94411.50;4956876;28;20598;-80
2022/12/10 07:16:30;;;;;;;59.33;32.17;;;;;;;-0.25;97.92;94426.16;4961995;28;20203;-80
2022/12/10 07:18:57;;;;;;;56.33;33.40;;;;;;;-0.44;97.50;94416.44;4952681;28;20193;-82
2022/12/10 07:21:25;;;;;;;57.03;32.33;;;;;;;-0.38;98.51;94421.91;4954938;28;20189;-81
2022/12/10 07:23:53;;;;;;;56.13;31.37;;;;;;;-0.29;97.94;94426.38;4961436;28;20189;-81
2022/12/10 07:26:19;;;;;;;56.47;31.50;;;;;;;-0.29;97.66;94425.53;4966503;28;20224;-80
2022/12/10 07:28:44;;;;;;;61.57;32.57;;;;;;;-0.35;97.51;94423.47;4973809;28;20184;-80
2022/12/10 07:31:10;;;;;;;55.10;32.40;;;;;;;-0.34;97.69;94423.34;4956400;28;20196;-80
2022/12/10 07:33:35;;;;;;;60.40;32.37;;;;;;;-0.42;97.72;94427.34;4975520;28;20649;-80
2022/12/10 07:36:05;;;;;;;55.27;29.50;;;;;;;-0.40;97.94;94435.72;4948960;28;20227;-81
2022/12/10 07:38:31;;;;;;;59.10;31.37;;;;;;;-0.53;98.65;94425.56;4972292;28;20647;-79
2022/12/10 07:40:56;;;;;;;57.83;31.30;;;;;;;-0.47;98.31;94439.63;4976126;28;20264;-80
2022/12/10 07:43:21;;;;;;;60.03;33.43;;;;;;;-0.33;98.27;94445.38;4979957;28;20275;-80
2022/12/10 07:45:47;;;;;;;59.77;33.23;;;;;;;-0.25;98.33;94441.47;4985579;28;20216;-81
2022/12/10 07:48:12;;;;;;;56.43;31.37;;;;;;;-0.22;98.21;94459.09;4960666;28;20199;-80
2022/12/10 07:50:37;;;;;;;61.70;32.23;;;;;;;-0.29;97.87;94456.97;4971755;28;20259;-80
2022/12/10 07:53:03;;;;;;;59.27;32.17;;;;;;;-0.20;98.01;94459.78;4962109;28;20188;-80
2022/12/10 07:55:28;;;;;;;55.40;31.63;;;;;;;-0.19;97.85;94463.97;4957035;28;20223;-80
2022/12/10 07:57:53;;;;;;;59.33;30.97;;;;;;;-0.19;96.75;94457.13;4963718;28;20250;-81
2022/12/10 08:00:19;;;;;;;51.10;30.47;;;;;;;-0.33;97.05;94452.22;4968754;28;20246;-80
2022/12/10 08:02:44;;;;;;;56.30;31.03;;;;;;;-0.27;96.89;94454.31;4975092;28;20282;-81
2022/12/10 08:05:10;;;;;;;53.37;29.77;;;;;;;-0.22;96.46;94457.38;4957131;28;20207;-81
2022/12/10 08:07:35;;;;;;;56.50;32.07;;;;;;;-0.23;96.70;94444.72;4967559;28;20183;-81
2022/12/10 08:10:01;;;;;;;58.57;31.20;;;;;;;-0.88;99.03;94454.34;4970425;28;20271;-81
2022/12/10 08:12:26;;;;;;;53.77;30.00;;;;;;;-0.68;98.61;94454.69;4974464;28;20188;-79
2022/12/10 08:14:51;;;;;;;51.63;30.37;;;;;;;-0.74;99.97;94450.81;4967621;28;20251;-80
2022/12/10 08:17:17;;;;;;;51.70;30.47;;;;;;;-0.47;98.53;94452.38;4955813;28;20196;-79
2022/12/10 08:19:42;;;;;;;57.13;31.73;;;;;;;-0.34;98.00;94453.13;4970437;28;20223;-81
2022/12/10 08:22:07;;;;;;;55.77;31.80;;;;;;;-0.55;99.00;94455.44;4971889;28;20204;-80
2022/12/10 08:24:33;;;;;;;59.57;32.67;;;;;;;-0.62;100.00;94457.63;4977691;28;20209;-81
2022/12/10 08:26:58;;;;;;;56.37;31.80;;;;;;;-0.39;98.55;94456.00;4956003;28;20667;-81
2022/12/10 08:29:23;;;;;;;61.17;32.33;;;;;;;-0.30;98.14;94457.91;4959141;28;20464;-82
2022/12/10 08:31:48;;;;;;;53.73;31.10;;;;;;;-0.23;97.36;94457.47;4951809;28;20207;-81
2022/12/10 08:34:15;;;;;;;57.63;33.33;;;;;;;-0.22;97.01;94469.31;4952599;28;20221;-82
2022/12/10 08:36:41;;;;;;;50.70;30.47;;;;;;;-0.15;97.14;94478.97;4972673;28;20260;-81
2022/12/10 08:39:07;;;;;;;54.60;31.60;;;;;;;-0.06;96.92;94474.94;4963983;28;20186;-79
2022/12/10 08:41:32;;;;;;;53.43;30.53;;;;;;;-0.05;96.01;94479.13;4981289;28;20191;-83
2022/12/10 08:43:57;;;;;;;50.80;29.47;;;;;;;0.00;96.34;94479.63;4962413;28;20184;-80
2022/12/10 08:46:24;;;;;;;48.67;28.90;;;;;;;0.07;96.13;94478.22;4957145;28;20227;-79
2022/12/10 08:48:50;;;;;;;54.20;31.00;;;;;;;0.03;95.48;94479.41;4970399;28;20200;-79
2022/12/10 08:51:17;;;;;;;49.30;29.47;;;;;;;0.02;95.57;94487.97;4969357;28;20184;-79
2022/12/10 08:53:42;;;;;;;56.40;30.57;;;;;;;-0.15;95.42;94489.19;4957674;28;20188;-82
2022/12/10 08:56:08;;;;;;;52.03;28.13;;;;;;;-0.18;95.50;94480.91;4968040;28;20199;-79
2022/12/10 08:58:33;;;;;;;49.90;29.50;;;;;;;-0.27;95.77;94487.47;4964814;28;20257;-79
2022/12/10 09:00:59;;;;;;;49.20;29.37;;;;;;;-0.10;95.67;94484.53;4971978;28;20197;-77
2022/12/10 09:03:24;;;;;;;50.80;30.13;;;;;;;-0.05;94.91;94489.34;4959830;28;20192;-79
2022/12/10 09:05:49;;;;;;;49.27;29.17;;;;;;;0.11;94.43;94487.31;4960159;28;20220;-80
2022/12/10 09:08:15;;;;;;;46.67;28.00;;;;;;;0.02;94.08;94489.72;4967322;28;20196;-80
2022/12/10 09:10:40;;;;;;;46.97;27.23;;;;;;;0.07;93.71;94488.44;4940954;28;20272;-81
2022/12/10 09:13:06;;;;;;;44.90;27.00;;;;;;;0.15;93.64;94490.44;4959199;28;20288;-80
2022/12/10 09:15:31;;;;;;;45.13;26.37;;;;;;;0.06;93.40;94504.69;4952541;28;20250;-79
2022/12/10 09:17:57;;;;;;;48.40;27.83;;;;;;;0.10;93.24;94512.97;4944675;29;20193;-80
2022/12/10 09:20:22;;;;;;;42.07;26.13;;;;;;;0.13;93.38;94512.72;4969955;28;20197;-79
2022/12/10 09:22:47;;;;;;;47.70;27.53;;;;;;;0.15;93.43;94513.44;4963341;28;20189;-79
2022/12/10 09:25:15;;;;;;;44.37;25.97;;;;;;;-0.08;92.52;94515.91;4968646;28;20213;-79
2022/12/10 09:27:40;;;;;;;41.73;25.90;;;;;;;0.01;92.96;94503.41;4958400;28;20200;-79
2022/12/10 09:30:07;;;;;;;40.87;25.43;;;;;;;0.17;92.11;94520.03;4959069;28;20559;-80
2022/12/10 09:32:32;;;;;;;44.70;26.10;;;;;;;0.27;91.46;94525.34;4968957;28;20196;-81
2022/12/10 09:34:57;;;;;;;44.40;26.47;;;;;;;0.32;91.41;94522.44;4962645;28;20215;-81
2022/12/10 09:37:23;;;;;;;38.50;25.13;;;;;;;0.22;91.56;94529.94;4959579;28;20227;-80
2022/12/10 09:39:48;;;;;;;42.93;26.60;;;;;;;0.30;91.25;94527.66;4963613;28;20769;-80
2022/12/10 09:42:47;;;;;;;41.10;25.87;;;;;;;0.23;91.63;94536.69;4952266;28;20192;-80
2022/12/10 09:45:25;;;;;;;41.97;25.57;;;;;;;0.27;90.79;94536.34;4944840;28;20236;-80
2022/12/10 09:48:19;;;;;;;40.27;23.97;;;;;;;0.26;90.45;94534.69;4974277;28;20200;-81
2022/12/10 09:50:50;;;;;;;43.67;24.80;;;;;;;0.10;90.30;94529.09;4977030;28;20669;-80
2022/12/10 09:53:18;;;;;;;46.13;26.43;;;;;;;0.25;90.67;94535.63;4985755;28;20202;-80
2022/12/10 09:55:45;;;;;;;47.07;26.23;;;;;;;0.36;90.92;94534.06;4969290;28;20215;-82
2022/12/10 09:58:18;;;;;;;47.10;28.77;;;;;;;0.25;90.65;94533.06;4966164;28;20195;-81
2022/12/10 10:00:46;;;;;;;45.53;27.80;;;;;;;0.32;91.23;94532.66;4964791;28;20193;-81
2022/12/10 10:03:15;;;;;;;48.77;27.57;;;;;;;0.54;90.51;94532.75;4981377;28;20187;-80
2022/12/10 10:05:47;;;;;;;43.53;26.97;;;;;;;0.18;90.87;94526.81;4981147;28;20748;-81
2022/12/10 10:08:48;;;;;;;46.00;27.80;;;;;;;0.48;90.66;94528.06;4961752;28;20192;-79
2022/12/10 10:11:28;;;;;;;49.23;29.33;;;;;;;0.51;90.09;94527.81;4964743;28;20251;-79
2022/12/10 10:14:09;;;;;;;48.23;27.33;;;;;;;0.71;88.66;94531.50;4982132;28;20279;-79
2022/12/10 10:16:37;;;;;;;43.90;26.60;;;;;;;0.78;88.86;94525.81;4964546;28;20203;-81
2022/12/10 10:19:13;;;;;;;39.80;24.47;;;;;;;0.52;89.31;94526.91;4965799;28;20202;-80
2022/12/10 10:21:41;;;;;;;43.20;25.87;;;;;;;0.52;89.39;94522.59;4976657;28;20286;-79
2022/12/10 10:24:10;;;;;;;41.93;24.83;;;;;;;0.58;88.90;94529.03;4967932;28;20915;-81
2022/12/10 10:26:35;;;;;;;43.60;27.07;;;;;;;0.71;88.09;94524.66;4958727;28;20341;-81
2022/12/10 10:29:04;;;;;;;43.03;26.13;;;;;;;0.47;89.48;94529.00;4966234;28;20205;-82
2022/12/10 10:31:31;;;;;;;39.00;24.87;;;;;;;0.46;89.04;94532.47;4973935;28;20290;-81
2022/12/10 10:33:59;;;;;;;40.00;23.57;;;;;;;0.53;87.94;94526.81;4975088;28;20204;-81
2022/12/10 10:36:31;;;;;;;40.73;22.63;;;;;;;0.55;87.05;94530.06;4959531;28;20208;-80
2022/12/10 10:38:56;;;;;;;42.80;23.40;;;;;;;0.32;88.16;94530.09;4966427;28;20667;-80
2022/12/10 10:41:23;;;;;;;40.20;24.67;;;;;;;0.30;88.73;94530.22;4968036;28;20206;-81
2022/12/10 10:43:54;;;;;;;41.50;24.00;;;;;;;0.55;88.03;94531.81;4947477;28;20197;-80
2022/12/10 10:46:23;;;;;;;42.43;24.43;;;;;;;0.33;89.85;94539.38;4991032;28;20191;-81
2022/12/10 10:48:49;;;;;;;44.07;25.97;;;;;;;0.48;89.15;94544.19;4993932;28;20185;-82
2022/12/10 10:51:18;;;;;;;39.93;24.93;;;;;;;0.50;88.31;94544.09;4986932;28;20195;-80
2022/12/10 10:53:56;;;;;;;33.30;22.07;;;;;;;0.59;87.09;94535.75;4997029;28;20207;-79
2022/12/10 10:56:27;;;;;;;36.77;23.20;;;;;;;0.68;87.13;94539.38;4983641;28;20193;-78
2022/12/10 10:58:58;;;;;;;37.37;23.00;;;;;;;0.57;86.54;94542.72;4996717;28;20283;-79
2022/12/10 11:01:25;;;;;;;31.63;21.43;;;;;;;0.66;86.33;94542.06;4992142;28;20570;-81
2022/12/10 11:03:57;;;;;;;36.23;22.50;;;;;;;0.45;86.83;94539.31;4971168;28;20212;-80
2022/12/10 11:06:22;;;;;;;35.90;22.80;;;;;;;0.69;86.52;94541.81;4968424;28;20257;-80
2022/12/10 11:08:48;;;;;;;35.83;22.23;;;;;;;0.78;86.18;94535.22;4968711;28;20709;-79
2022/12/10 11:11:19;;;;;;;41.37;24.90;;;;;;;0.96;86.10;94545.81;4974338;28;20607;-81
2022/12/10 11:13:45;;;;;;;39.83;24.83;;;;;;;0.96;85.91;94540.69;4975431;28;20189;-80
2022/12/10 11:16:15;;;;;;;39.97;25.67;;;;;;;0.98;86.06;94549.09;4963547;28;20269;-80
2022/12/10 11:18:43;;;;;;;40.87;24.37;;;;;;;1.00;85.99;94547.22;4977744;28;20638;-81
2022/12/10 11:21:21;;;;;;;39.50;24.77;;;;;;;0.75;nan;94546.47;4974767;28;20200;-80
2022/12/10 11:23:57;;;;;;;39.60;25.23;;;;;;;0.71;86.11;94550.22;4978623;28;20199;-81
2022/12/10 11:26:55;;;;;;;39.60;24.13;;;;;;;0.96;86.15;94551.75;4975914;28;20195;-83
2022/12/10 11:29:29;;;;;;;38.67;22.77;;;;;;;0.87;85.05;94546.50;4973112;28;20261;-80
2022/12/10 11:32:16;;;;;;;44.03;27.50;;;;;;;0.81;84.91;94553.72;4973391;28;20196;-82